This is the latest recevied weather packets stored in our database for station/object EA1GGY-1. If no packets are shown the sender has not sent any weather packets the latest 10 day(s).
| Time | Temp. | Humidity | Pressure | Rain* | Wind** | Luminosity | Snow |
|---|---|---|---|---|---|---|---|
| 1777585806 | 12.22° C | 74% | 1013.9 hPa | - | - | - | - |
| 1777585203 | 11.67° C | 74% | 1013.9 hPa | - | - | - | - |
| 1777584602 | 12.22° C | 74% | 1013.9 hPa | - | - | - | - |
| 1777584002 | 12.22° C | 73% | 1013.8 hPa | - | - | - | - |
| 1777583401 | 12.22° C | 74% | 1013.8 hPa | - | - | - | - |
| 1777582801 | 12.78° C | 72% | 1013.8 hPa | - | - | - | - |
| 1777582199 | 13.33° C | 68% | 1013.7 hPa | - | - | - | - |
| 1777581600 | 13.33° C | 67% | 1013.6 hPa | - | - | - | - |
| 1777580997 | 12.78° C | 72% | 1013.6 hPa | - | - | - | - |
| 1777580396 | 13.33° C | 69% | 1013.5 hPa | - | - | - | - |
| 1777579795 | 13.33° C | 67% | 1013.4 hPa | - | - | - | - |
| 1777579194 | 13.33° C | 69% | 1013.4 hPa | - | - | - | - |
| 1777578594 | 13.89° C | 67% | 1013.2 hPa | - | - | - | - |
| 1777577993 | 13.89° C | 65% | 1013.2 hPa | - | - | - | - |
| 1777577392 | 13.89° C | 67% | 1013.1 hPa | - | - | - | - |
| 1777576791 | 13.89° C | 65% | 1013 hPa | - | - | - | - |
| 1777576190 | 13.89° C | 65% | 1013 hPa | - | - | - | - |
| 1777575590 | 13.89° C | 66% | 1012.8 hPa | - | - | - | - |
| 1777574989 | 14.44° C | 66% | 1012.7 hPa | - | - | - | - |
| 1777574388 | 14.44° C | 68% | 1012.6 hPa | - | - | - | - |
| 1777573787 | 13.89° C | 67% | 1012.6 hPa | - | - | - | - |
| 1777573186 | 14.44° C | 64% | 1012.5 hPa | - | - | - | - |
| 1777572586 | 15° C | 64% | 1012.4 hPa | - | - | - | - |
| 1777571985 | 15° C | 65% | 1012.5 hPa | - | - | - | - |
| 1777571384 | 15° C | 64% | 1012.5 hPa | - | - | - | - |
* Rain since midnight (hover to see other rain measurements)
** Current wind speed in m/s (hover to see current wind gust speed)